VTSP/HKT METAR and TAF weather

Enter ICAO airport designator
Station Type Date Time Source
VTSP METAR 2019/10/23 13:30 UTC NOAA

VTSP 231330Z VRB01KT 8000 FEW018CB SCT100 26/24 Q1012 NOSIG


Station Type Date Time Source
VTSP Decoded METAR 2019/10/23 13:30 UTC NOAA

Phuket Airport, Thailand (VTSP) 08-07N 098-19E 10M
Oct 23, 2019 - 09:30 AM EDT / 2019.10.23 1330 UTC
Wind: Variable at 1 MPH (1 KT):0
Visibility: 4 mile(s):0
Sky conditions: partly cloudy
Weather: Cumulonimbus clouds observed
Temperature: 78 F (26 C)
Dew Point: 75 F (24 C)
Relative Humidity: 88%
Pressure (altimeter): 29.88 in. Hg (1012 hPa)
ob: VTSP 231330Z VRB01KT 8000 FEW018CB SCT100 26/24 Q1012 NOSIG
cycle: 13

Station Type Date Time Source
VTSP TAF 2019/10/23 12:39 UTC NOAA

TAF VTSP 231100Z 2312/2418 00000KT 9999 SCT020
BECMG 2400/2402 08006KT
BECMG 2404/2406 26008KT
TEMPO 2406/2412 VRB15G25KT 5000 TSRA FEW018CB SCT020 BKN100
BECMG 2412/2414 00000KT

Example: see airport list